sensor_id;sensor_type;location;lat;lon;timestamp;P1;durP1;ratioP1;P2;durP2;ratioP2
52368;SDS011;38298;50.346;3.526;2022-07-29T00:00:08;3.88;;;1.45;;
52368;SDS011;38298;50.346;3.526;2022-07-29T00:02:35;7.85;;;1.67;;
52368;SDS011;38298;50.346;3.526;2022-07-29T00:05:02;3.55;;;1.38;;
52368;SDS011;38298;50.346;3.526;2022-07-29T00:07:28;6.57;;;2.33;;
52368;SDS011;38298;50.346;3.526;2022-07-29T00:09:54;8.27;;;2.35;;
52368;SDS011;38298;50.346;3.526;2022-07-29T00:12:20;4.43;;;1.83;;
52368;SDS011;38298;50.346;3.526;2022-07-29T00:14:46;6.43;;;1.80;;
52368;SDS011;38298;50.346;3.526;2022-07-29T00:17:13;5.95;;;1.77;;
52368;SDS011;38298;50.346;3.526;2022-07-29T00:19:39;4.95;;;1.95;;
52368;SDS011;38298;50.346;3.526;2022-07-29T00:22:05;6.82;;;2.08;;
52368;SDS011;38298;50.346;3.526;2022-07-29T00:24:31;5.00;;;2.05;;
52368;SDS011;38298;50.346;3.526;2022-07-29T00:26:57;5.32;;;1.63;;
52368;SDS011;38298;50.346;3.526;2022-07-29T00:29:23;2.60;;;1.38;;
52368;SDS011;38298;50.346;3.526;2022-07-29T00:31:49;2.58;;;1.35;;
52368;SDS011;38298;50.346;3.526;2022-07-29T00:34:16;5.20;;;1.50;;
52368;SDS011;38298;50.346;3.526;2022-07-29T00:37:00;5.10;;;1.27;;
52368;SDS011;38298;50.346;3.526;2022-07-29T00:39:26;4.30;;;1.30;;
52368;SDS011;38298;50.346;3.526;2022-07-29T00:41:52;3.85;;;0.98;;
52368;SDS011;38298;50.346;3.526;2022-07-29T00:44:19;5.82;;;1.33;;
52368;SDS011;38298;50.346;3.526;2022-07-29T00:46:45;6.40;;;1.20;;
52368;SDS011;38298;50.346;3.526;2022-07-29T00:49:11;4.90;;;1.63;;
52368;SDS011;38298;50.346;3.526;2022-07-29T00:51:37;5.85;;;1.10;;
52368;SDS011;38298;50.346;3.526;2022-07-29T00:54:03;4.30;;;1.00;;
52368;SDS011;38298;50.346;3.526;2022-07-29T00:56:30;5.57;;;1.40;;
52368;SDS011;38298;50.346;3.526;2022-07-29T00:58:57;4.78;;;1.20;;
52368;SDS011;38298;50.346;3.526;2022-07-29T01:01:23;9.57;;;1.38;;
52368;SDS011;38298;50.346;3.526;2022-07-29T01:03:50;4.50;;;1.50;;
52368;SDS011;38298;50.346;3.526;2022-07-29T01:06:19;3.33;;;1.33;;
52368;SDS011;38298;50.346;3.526;2022-07-29T01:08:45;5.70;;;1.30;;
52368;SDS011;38298;50.346;3.526;2022-07-29T01:11:12;3.38;;;1.10;;
52368;SDS011;38298;50.346;3.526;2022-07-29T01:13:38;4.95;;;1.50;;
52368;SDS011;38298;50.346;3.526;2022-07-29T01:16:25;3.25;;;1.45;;
52368;SDS011;38298;50.346;3.526;2022-07-29T01:18:54;4.60;;;1.30;;
52368;SDS011;38298;50.346;3.526;2022-07-29T01:31:51;4.22;;;1.17;;
52368;SDS011;38298;50.346;3.526;2022-07-29T01:35:03;4.78;;;1.08;;
52368;SDS011;38298;50.346;3.526;2022-07-29T01:37:29;5.50;;;1.30;;
52368;SDS011;38298;50.346;3.526;2022-07-29T01:39:56;2.03;;;1.20;;
52368;SDS011;38298;50.346;3.526;2022-07-29T01:42:31;9.98;;;1.30;;
52368;SDS011;38298;50.346;3.526;2022-07-29T01:47:43;5.75;;;1.10;;
52368;SDS011;38298;50.346;3.526;2022-07-29T01:50:11;3.33;;;1.50;;
52368;SDS011;38298;50.346;3.526;2022-07-29T01:52:58;3.30;;;1.30;;
52368;SDS011;38298;50.346;3.526;2022-07-29T01:55:25;3.88;;;1.25;;
52368;SDS011;38298;50.346;3.526;2022-07-29T01:57:52;3.42;;;1.23;;
52368;SDS011;38298;50.346;3.526;2022-07-29T02:00:19;4.55;;;1.27;;
52368;SDS011;38298;50.346;3.526;2022-07-29T02:02:46;3.80;;;1.45;;
52368;SDS011;38298;50.346;3.526;2022-07-29T02:05:14;3.17;;;1.50;;
52368;SDS011;38298;50.346;3.526;2022-07-29T02:07:40;2.83;;;1.33;;
52368;SDS011;38298;50.346;3.526;2022-07-29T02:10:07;2.35;;;1.50;;
52368;SDS011;38298;50.346;3.526;2022-07-29T02:12:35;1.45;;;1.17;;
52368;SDS011;38298;50.346;3.526;2022-07-29T02:15:02;3.45;;;1.35;;
52368;SDS011;38298;50.346;3.526;2022-07-29T02:17:33;2.63;;;1.33;;
52368;SDS011;38298;50.346;3.526;2022-07-29T02:20:02;2.05;;;1.23;;
52368;SDS011;38298;50.346;3.526;2022-07-29T02:22:29;4.38;;;1.63;;
52368;SDS011;38298;50.346;3.526;2022-07-29T02:24:55;4.18;;;1.33;;
52368;SDS011;38298;50.346;3.526;2022-07-29T02:27:22;1.63;;;1.35;;
52368;SDS011;38298;50.346;3.526;2022-07-29T02:29:49;2.83;;;1.45;;
52368;SDS011;38298;50.346;3.526;2022-07-29T02:32:16;4.60;;;1.17;;
52368;SDS011;38298;50.346;3.526;2022-07-29T02:34:42;5.43;;;1.52;;
52368;SDS011;38298;50.346;3.526;2022-07-29T02:37:09;7.60;;;1.42;;
52368;SDS011;38298;50.346;3.526;2022-07-29T02:39:36;2.80;;;1.42;;
52368;SDS011;38298;50.346;3.526;2022-07-29T02:42:03;4.10;;;1.55;;
52368;SDS011;38298;50.346;3.526;2022-07-29T02:44:31;2.78;;;1.50;;
52368;SDS011;38298;50.346;3.526;2022-07-29T02:47:04;6.60;;;1.48;;
52368;SDS011;38298;50.346;3.526;2022-07-29T02:49:48;2.78;;;1.38;;
52368;SDS011;38298;50.346;3.526;2022-07-29T02:52:19;6.10;;;1.40;;
52368;SDS011;38298;50.346;3.526;2022-07-29T02:54:47;4.40;;;1.63;;
52368;SDS011;38298;50.346;3.526;2022-07-29T02:57:22;3.50;;;1.50;;
52368;SDS011;38298;50.346;3.526;2022-07-29T02:59:49;3.85;;;1.50;;
52368;SDS011;38298;50.346;3.526;2022-07-29T03:02:17;3.35;;;1.30;;
52368;SDS011;38298;50.346;3.526;2022-07-29T03:04:43;2.45;;;1.40;;
52368;SDS011;38298;50.346;3.526;2022-07-29T03:07:10;4.75;;;1.58;;
52368;SDS011;38298;50.346;3.526;2022-07-29T03:09:38;4.10;;;2.05;;
52368;SDS011;38298;50.346;3.526;2022-07-29T03:12:05;5.05;;;1.75;;
52368;SDS011;38298;50.346;3.526;2022-07-29T03:14:31;5.53;;;1.50;;
52368;SDS011;38298;50.346;3.526;2022-07-29T03:16:58;2.47;;;1.50;;
52368;SDS011;38298;50.346;3.526;2022-07-29T03:19:24;3.17;;;1.73;;
52368;SDS011;38298;50.346;3.526;2022-07-29T03:21:51;3.95;;;1.75;;
52368;SDS011;38298;50.346;3.526;2022-07-29T03:24:25;2.80;;;1.77;;
52368;SDS011;38298;50.346;3.526;2022-07-29T03:26:51;7.10;;;2.00;;
52368;SDS011;38298;50.346;3.526;2022-07-29T03:29:17;7.00;;;1.55;;
52368;SDS011;38298;50.346;3.526;2022-07-29T03:31:43;7.63;;;2.05;;
52368;SDS011;38298;50.346;3.526;2022-07-29T03:34:09;6.30;;;1.92;;
52368;SDS011;38298;50.346;3.526;2022-07-29T03:36:35;2.92;;;1.55;;
52368;SDS011;38298;50.346;3.526;2022-07-29T03:39:01;3.75;;;1.90;;
52368;SDS011;38298;50.346;3.526;2022-07-29T03:41:28;4.03;;;2.10;;
52368;SDS011;38298;50.346;3.526;2022-07-29T03:43:54;7.22;;;1.95;;
52368;SDS011;38298;50.346;3.526;2022-07-29T03:46:22;6.07;;;2.25;;
52368;SDS011;38298;50.346;3.526;2022-07-29T03:48:50;4.57;;;2.28;;
52368;SDS011;38298;50.346;3.526;2022-07-29T03:51:18;6.15;;;2.28;;
52368;SDS011;38298;50.346;3.526;2022-07-29T03:53:44;3.42;;;1.95;;
52368;SDS011;38298;50.346;3.526;2022-07-29T03:56:10;7.88;;;1.90;;
52368;SDS011;38298;50.346;3.526;2022-07-29T03:58:37;6.00;;;1.92;;
52368;SDS011;38298;50.346;3.526;2022-07-29T04:01:04;11.30;;;2.03;;
52368;SDS011;38298;50.346;3.526;2022-07-29T04:03:30;3.95;;;1.80;;
52368;SDS011;38298;50.346;3.526;2022-07-29T04:06:00;3.75;;;2.05;;
52368;SDS011;38298;50.346;3.526;2022-07-29T04:08:26;6.83;;;1.70;;
52368;SDS011;38298;50.346;3.526;2022-07-29T04:10:52;3.63;;;1.70;;
52368;SDS011;38298;50.346;3.526;2022-07-29T04:13:19;6.03;;;2.17;;
52368;SDS011;38298;50.346;3.526;2022-07-29T04:15:45;4.53;;;1.77;;
52368;SDS011;38298;50.346;3.526;2022-07-29T04:18:11;5.35;;;1.73;;
52368;SDS011;38298;50.346;3.526;2022-07-29T04:20:37;2.88;;;1.70;;
52368;SDS011;38298;50.346;3.526;2022-07-29T04:23:03;2.80;;;1.85;;
52368;SDS011;38298;50.346;3.526;2022-07-29T04:25:29;4.03;;;1.70;;
52368;SDS011;38298;50.346;3.526;2022-07-29T04:27:55;3.40;;;1.60;;
52368;SDS011;38298;50.346;3.526;2022-07-29T04:30:31;3.38;;;1.80;;
52368;SDS011;38298;50.346;3.526;2022-07-29T04:33:00;5.95;;;2.38;;
52368;SDS011;38298;50.346;3.526;2022-07-29T04:35:27;5.10;;;1.88;;
52368;SDS011;38298;50.346;3.526;2022-07-29T04:37:53;3.42;;;1.70;;
52368;SDS011;38298;50.346;3.526;2022-07-29T04:40:20;3.92;;;1.63;;
52368;SDS011;38298;50.346;3.526;2022-07-29T04:42:46;6.93;;;1.40;;
52368;SDS011;38298;50.346;3.526;2022-07-29T04:45:12;3.05;;;1.98;;
52368;SDS011;38298;50.346;3.526;2022-07-29T04:47:38;4.82;;;2.00;;
52368;SDS011;38298;50.346;3.526;2022-07-29T04:50:04;4.03;;;2.08;;
52368;SDS011;38298;50.346;3.526;2022-07-29T04:52:32;2.58;;;2.00;;
52368;SDS011;38298;50.346;3.526;2022-07-29T04:54:59;7.15;;;1.95;;
52368;SDS011;38298;50.346;3.526;2022-07-29T04:57:25;3.42;;;2.00;;
52368;SDS011;38298;50.346;3.526;2022-07-29T04:59:51;3.58;;;1.70;;
52368;SDS011;38298;50.346;3.526;2022-07-29T05:02:17;4.60;;;2.10;;
52368;SDS011;38298;50.346;3.526;2022-07-29T05:04:43;5.63;;;2.15;;
52368;SDS011;38298;50.346;3.526;2022-07-29T05:07:10;8.07;;;1.90;;
52368;SDS011;38298;50.346;3.526;2022-07-29T05:09:36;5.10;;;1.85;;
52368;SDS011;38298;50.346;3.526;2022-07-29T05:12:02;3.38;;;1.85;;
52368;SDS011;38298;50.346;3.526;2022-07-29T05:14:28;6.18;;;2.03;;
52368;SDS011;38298;50.346;3.526;2022-07-29T05:16:54;5.15;;;2.10;;
52368;SDS011;38298;50.346;3.526;2022-07-29T05:19:22;7.30;;;1.85;;
52368;SDS011;38298;50.346;3.526;2022-07-29T05:21:48;4.28;;;1.70;;
52368;SDS011;38298;50.346;3.526;2022-07-29T05:24:14;7.55;;;2.08;;
52368;SDS011;38298;50.346;3.526;2022-07-29T05:26:41;6.85;;;2.20;;
52368;SDS011;38298;50.346;3.526;2022-07-29T05:29:07;7.93;;;2.03;;
52368;SDS011;38298;50.346;3.526;2022-07-29T05:31:33;3.60;;;1.83;;
52368;SDS011;38298;50.346;3.526;2022-07-29T05:33:59;3.90;;;2.22;;
52368;SDS011;38298;50.346;3.526;2022-07-29T05:36:26;3.88;;;1.90;;
52368;SDS011;38298;50.346;3.526;2022-07-29T05:38:52;5.45;;;1.77;;
52368;SDS011;38298;50.346;3.526;2022-07-29T05:41:18;6.68;;;2.25;;
52368;SDS011;38298;50.346;3.526;2022-07-29T05:43:44;7.75;;;2.50;;
52368;SDS011;38298;50.346;3.526;2022-07-29T05:46:10;7.07;;;1.90;;
52368;SDS011;38298;50.346;3.526;2022-07-29T05:48:36;5.93;;;1.95;;
52368;SDS011;38298;50.346;3.526;2022-07-29T05:51:03;6.78;;;2.38;;
52368;SDS011;38298;50.346;3.526;2022-07-29T05:53:30;7.30;;;2.22;;
52368;SDS011;38298;50.346;3.526;2022-07-29T05:55:56;7.65;;;2.38;;
52368;SDS011;38298;50.346;3.526;2022-07-29T05:58:22;5.13;;;2.30;;
52368;SDS011;38298;50.346;3.526;2022-07-29T06:00:48;8.95;;;3.80;;
52368;SDS011;38298;50.346;3.526;2022-07-29T06:03:14;5.53;;;2.28;;
52368;SDS011;38298;50.346;3.526;2022-07-29T06:05:40;8.52;;;2.20;;
52368;SDS011;38298;50.346;3.526;2022-07-29T06:08:06;12.43;;;2.35;;
52368;SDS011;38298;50.346;3.526;2022-07-29T06:10:34;7.00;;;2.20;;
52368;SDS011;38298;50.346;3.526;2022-07-29T06:13:00;5.93;;;2.55;;
52368;SDS011;38298;50.346;3.526;2022-07-29T06:15:27;9.38;;;2.42;;
52368;SDS011;38298;50.346;3.526;2022-07-29T06:17:53;10.90;;;2.60;;
52368;SDS011;38298;50.346;3.526;2022-07-29T06:20:19;6.97;;;2.50;;
52368;SDS011;38298;50.346;3.526;2022-07-29T06:22:45;6.20;;;2.47;;
52368;SDS011;38298;50.346;3.526;2022-07-29T06:25:11;4.85;;;2.50;;
52368;SDS011;38298;50.346;3.526;2022-07-29T06:27:37;10.02;;;2.28;;
52368;SDS011;38298;50.346;3.526;2022-07-29T06:30:03;8.18;;;2.75;;
52368;SDS011;38298;50.346;3.526;2022-07-29T06:32:32;5.00;;;2.40;;
52368;SDS011;38298;50.346;3.526;2022-07-29T06:34:58;8.90;;;2.42;;
52368;SDS011;38298;50.346;3.526;2022-07-29T06:37:24;8.10;;;1.95;;
52368;SDS011;38298;50.346;3.526;2022-07-29T06:39:50;9.57;;;2.10;;
52368;SDS011;38298;50.346;3.526;2022-07-29T06:42:36;4.00;;;2.03;;
52368;SDS011;38298;50.346;3.526;2022-07-29T06:45:03;7.60;;;2.25;;
52368;SDS011;38298;50.346;3.526;2022-07-29T06:47:29;7.07;;;2.50;;
52368;SDS011;38298;50.346;3.526;2022-07-29T06:49:55;7.78;;;2.45;;
52368;SDS011;38298;50.346;3.526;2022-07-29T06:52:21;9.77;;;2.28;;
52368;SDS011;38298;50.346;3.526;2022-07-29T06:54:47;7.15;;;2.20;;
52368;SDS011;38298;50.346;3.526;2022-07-29T06:57:13;8.52;;;2.80;;
52368;SDS011;38298;50.346;3.526;2022-07-29T06:59:39;5.38;;;2.47;;
52368;SDS011;38298;50.346;3.526;2022-07-29T07:02:05;6.97;;;2.10;;
52368;SDS011;38298;50.346;3.526;2022-07-29T07:04:32;9.82;;;2.30;;
52368;SDS011;38298;50.346;3.526;2022-07-29T07:06:58;4.70;;;2.40;;
52368;SDS011;38298;50.346;3.526;2022-07-29T07:09:24;12.00;;;2.35;;
52368;SDS011;38298;50.346;3.526;2022-07-29T07:11:51;3.35;;;1.92;;
52368;SDS011;38298;50.346;3.526;2022-07-29T07:14:17;5.57;;;2.55;;
52368;SDS011;38298;50.346;3.526;2022-07-29T07:16:43;4.53;;;2.00;;
52368;SDS011;38298;50.346;3.526;2022-07-29T07:19:09;5.60;;;2.15;;
52368;SDS011;38298;50.346;3.526;2022-07-29T07:21:35;4.22;;;1.90;;
52368;SDS011;38298;50.346;3.526;2022-07-29T07:24:01;7.03;;;2.50;;
52368;SDS011;38298;50.346;3.526;2022-07-29T07:26:27;5.15;;;2.03;;
52368;SDS011;38298;50.346;3.526;2022-07-29T07:28:53;6.85;;;1.95;;
52368;SDS011;38298;50.346;3.526;2022-07-29T07:31:19;10.32;;;2.42;;
52368;SDS011;38298;50.346;3.526;2022-07-29T07:33:45;5.55;;;2.63;;
52368;SDS011;38298;50.346;3.526;2022-07-29T07:36:11;19.33;;;2.55;;
52368;SDS011;38298;50.346;3.526;2022-07-29T07:38:38;11.52;;;2.30;;
52368;SDS011;38298;50.346;3.526;2022-07-29T07:41:04;9.43;;;2.60;;
52368;SDS011;38298;50.346;3.526;2022-07-29T07:43:32;12.02;;;2.47;;
52368;SDS011;38298;50.346;3.526;2022-07-29T07:45:58;5.90;;;2.58;;
52368;SDS011;38298;50.346;3.526;2022-07-29T07:48:25;9.60;;;2.70;;
52368;SDS011;38298;50.346;3.526;2022-07-29T07:50:51;12.15;;;2.47;;
52368;SDS011;38298;50.346;3.526;2022-07-29T07:53:17;20.45;;;2.92;;
52368;SDS011;38298;50.346;3.526;2022-07-29T07:55:43;15.15;;;3.15;;
52368;SDS011;38298;50.346;3.526;2022-07-29T07:58:09;10.05;;;2.80;;
52368;SDS011;38298;50.346;3.526;2022-07-29T08:00:35;10.43;;;2.33;;
52368;SDS011;38298;50.346;3.526;2022-07-29T08:03:02;8.82;;;2.33;;
52368;SDS011;38298;50.346;3.526;2022-07-29T08:05:28;8.60;;;3.97;;
52368;SDS011;38298;50.346;3.526;2022-07-29T08:07:54;11.07;;;2.45;;
52368;SDS011;38298;50.346;3.526;2022-07-29T08:10:20;8.70;;;1.98;;
52368;SDS011;38298;50.346;3.526;2022-07-29T08:13:05;11.18;;;2.17;;
52368;SDS011;38298;50.346;3.526;2022-07-29T08:15:32;3.72;;;1.92;;
52368;SDS011;38298;50.346;3.526;2022-07-29T08:18:00;9.90;;;2.50;;
52368;SDS011;38298;50.346;3.526;2022-07-29T08:20:26;6.35;;;1.83;;
52368;SDS011;38298;50.346;3.526;2022-07-29T08:22:52;7.20;;;1.88;;
52368;SDS011;38298;50.346;3.526;2022-07-29T08:25:19;7.80;;;1.67;;
52368;SDS011;38298;50.346;3.526;2022-07-29T08:27:46;4.82;;;1.90;;
52368;SDS011;38298;50.346;3.526;2022-07-29T08:30:12;8.35;;;1.65;;
52368;SDS011;38298;50.346;3.526;2022-07-29T08:32:38;4.05;;;1.65;;
52368;SDS011;38298;50.346;3.526;2022-07-29T08:35:04;9.45;;;2.22;;
52368;SDS011;38298;50.346;3.526;2022-07-29T08:37:31;8.73;;;1.50;;
52368;SDS011;38298;50.346;3.526;2022-07-29T08:39:57;9.07;;;1.77;;
52368;SDS011;38298;50.346;3.526;2022-07-29T08:42:23;5.20;;;1.80;;
52368;SDS011;38298;50.346;3.526;2022-07-29T08:44:50;9.63;;;1.33;;
52368;SDS011;38298;50.346;3.526;2022-07-29T08:47:16;12.13;;;1.40;;
52368;SDS011;38298;50.346;3.526;2022-07-29T08:49:43;8.57;;;1.52;;
52368;SDS011;38298;50.346;3.526;2022-07-29T08:52:10;5.95;;;1.27;;
52368;SDS011;38298;50.346;3.526;2022-07-29T08:54:40;3.20;;;1.17;;
52368;SDS011;38298;50.346;3.526;2022-07-29T08:57:10;6.13;;;1.40;;
52368;SDS011;38298;50.346;3.526;2022-07-29T08:59:38;2.50;;;1.00;;
52368;SDS011;38298;50.346;3.526;2022-07-29T09:02:05;4.43;;;1.00;;
52368;SDS011;38298;50.346;3.526;2022-07-29T09:04:38;3.67;;;1.00;;
52368;SDS011;38298;50.346;3.526;2022-07-29T09:07:04;4.93;;;0.85;;
52368;SDS011;38298;50.346;3.526;2022-07-29T09:09:32;3.45;;;1.38;;
52368;SDS011;38298;50.346;3.526;2022-07-29T09:11:58;2.60;;;1.02;;
52368;SDS011;38298;50.346;3.526;2022-07-29T09:19:43;4.65;;;0.90;;
52368;SDS011;38298;50.346;3.526;2022-07-29T09:22:09;6.18;;;1.08;;
52368;SDS011;38298;50.346;3.526;2022-07-29T09:24:41;3.35;;;1.00;;
52368;SDS011;38298;50.346;3.526;2022-07-29T09:27:08;2.60;;;0.88;;
52368;SDS011;38298;50.346;3.526;2022-07-29T09:29:35;6.88;;;1.20;;
52368;SDS011;38298;50.346;3.526;2022-07-29T09:32:01;4.20;;;1.30;;
52368;SDS011;38298;50.346;3.526;2022-07-29T09:34:31;6.28;;;1.08;;
52368;SDS011;38298;50.346;3.526;2022-07-29T09:36:57;3.88;;;0.95;;
52368;SDS011;38298;50.346;3.526;2022-07-29T09:39:30;10.20;;;1.40;;
52368;SDS011;38298;50.346;3.526;2022-07-29T09:41:57;2.60;;;0.85;;
52368;SDS011;38298;50.346;3.526;2022-07-29T09:44:23;8.77;;;1.08;;
52368;SDS011;38298;50.346;3.526;2022-07-29T09:47:02;13.88;;;1.20;;
52368;SDS011;38298;50.346;3.526;2022-07-29T09:49:35;6.00;;;1.00;;
52368;SDS011;38298;50.346;3.526;2022-07-29T09:54:28;7.35;;;0.82;;
52368;SDS011;38298;50.346;3.526;2022-07-29T09:56:59;4.60;;;1.10;;
52368;SDS011;38298;50.346;3.526;2022-07-29T09:59:25;5.57;;;0.90;;
52368;SDS011;38298;50.346;3.526;2022-07-29T10:01:53;6.32;;;1.25;;
52368;SDS011;38298;50.346;3.526;2022-07-29T10:04:19;6.60;;;1.02;;
52368;SDS011;38298;50.346;3.526;2022-07-29T10:06:55;3.45;;;0.85;;
52368;SDS011;38298;50.346;3.526;2022-07-29T10:09:21;4.95;;;1.23;;
52368;SDS011;38298;50.346;3.526;2022-07-29T10:12:09;10.10;;;1.20;;
52368;SDS011;38298;50.346;3.526;2022-07-29T10:14:35;8.80;;;1.27;;
52368;SDS011;38298;50.346;3.526;2022-07-29T10:17:01;7.68;;;1.40;;
52368;SDS011;38298;50.346;3.526;2022-07-29T10:19:28;7.05;;;2.10;;
52368;SDS011;38298;50.346;3.526;2022-07-29T10:21:56;9.88;;;5.03;;
52368;SDS011;38298;50.346;3.526;2022-07-29T10:24:24;5.93;;;1.50;;
52368;SDS011;38298;50.346;3.526;2022-07-29T10:26:50;7.75;;;1.30;;
52368;SDS011;38298;50.346;3.526;2022-07-29T10:29:16;2.85;;;1.17;;
52368;SDS011;38298;50.346;3.526;2022-07-29T10:36:59;8.07;;;1.17;;
52368;SDS011;38298;50.346;3.526;2022-07-29T10:44:46;4.07;;;1.00;;
52368;SDS011;38298;50.346;3.526;2022-07-29T10:47:22;6.10;;;1.27;;
52368;SDS011;38298;50.346;3.526;2022-07-29T10:50:22;1.42;;;0.95;;
52368;SDS011;38298;50.346;3.526;2022-07-29T10:55:33;1.52;;;0.88;;
52368;SDS011;38298;50.346;3.526;2022-07-29T10:58:21;2.50;;;1.00;;
52368;SDS011;38298;50.346;3.526;2022-07-29T11:00:49;2.60;;;1.05;;
52368;SDS011;38298;50.346;3.526;2022-07-29T11:06:00;10.98;;;1.30;;
52368;SDS011;38298;50.346;3.526;2022-07-29T11:08:26;9.02;;;1.50;;
52368;SDS011;38298;50.346;3.526;2022-07-29T11:11:29;3.78;;;1.10;;
52368;SDS011;38298;50.346;3.526;2022-07-29T11:16:11;2.67;;;1.23;;
52368;SDS011;38298;50.346;3.526;2022-07-29T11:21:34;3.38;;;0.80;;
52368;SDS011;38298;50.346;3.526;2022-07-29T11:24:14;5.10;;;1.20;;
52368;SDS011;38298;50.346;3.526;2022-07-29T11:26:40;1.43;;;0.80;;
52368;SDS011;38298;50.346;3.526;2022-07-29T11:29:16;3.03;;;1.30;;
52368;SDS011;38298;50.346;3.526;2022-07-29T11:31:44;3.58;;;1.10;;
52368;SDS011;38298;50.346;3.526;2022-07-29T11:39:28;5.50;;;1.08;;
52368;SDS011;38298;50.346;3.526;2022-07-29T11:42:24;4.05;;;1.08;;
52368;SDS011;38298;50.346;3.526;2022-07-29T11:47:21;3.78;;;1.55;;
52368;SDS011;38298;50.346;3.526;2022-07-29T11:49:48;3.08;;;0.82;;
52368;SDS011;38298;50.346;3.526;2022-07-29T11:52:15;6.35;;;1.00;;
52368;SDS011;38298;50.346;3.526;2022-07-29T11:54:42;4.95;;;1.00;;
52368;SDS011;38298;50.346;3.526;2022-07-29T11:57:08;9.02;;;1.15;;
52368;SDS011;38298;50.346;3.526;2022-07-29T11:59:41;1.73;;;1.08;;
52368;SDS011;38298;50.346;3.526;2022-07-29T12:02:07;5.45;;;1.50;;
52368;SDS011;38298;50.346;3.526;2022-07-29T12:04:36;3.35;;;0.70;;
52368;SDS011;38298;50.346;3.526;2022-07-29T12:07:13;3.33;;;0.85;;
52368;SDS011;38298;50.346;3.526;2022-07-29T12:09:39;7.88;;;1.00;;
52368;SDS011;38298;50.346;3.526;2022-07-29T12:12:05;2.78;;;0.73;;
52368;SDS011;38298;50.346;3.526;2022-07-29T12:14:32;3.42;;;0.95;;
52368;SDS011;38298;50.346;3.526;2022-07-29T12:16:59;1.85;;;0.82;;
52368;SDS011;38298;50.346;3.526;2022-07-29T12:19:26;2.25;;;1.15;;
52368;SDS011;38298;50.346;3.526;2022-07-29T12:21:52;2.53;;;0.80;;
52368;SDS011;38298;50.346;3.526;2022-07-29T12:24:19;1.40;;;0.55;;
52368;SDS011;38298;50.346;3.526;2022-07-29T12:26:49;2.05;;;0.70;;
52368;SDS011;38298;50.346;3.526;2022-07-29T12:29:16;1.70;;;0.70;;
52368;SDS011;38298;50.346;3.526;2022-07-29T12:31:43;6.03;;;1.58;;
52368;SDS011;38298;50.346;3.526;2022-07-29T12:34:10;6.07;;;0.85;;
52368;SDS011;38298;50.346;3.526;2022-07-29T12:36:36;3.95;;;0.60;;
52368;SDS011;38298;50.346;3.526;2022-07-29T12:39:03;4.13;;;0.40;;
52368;SDS011;38298;50.346;3.526;2022-07-29T12:41:30;3.17;;;0.60;;
52368;SDS011;38298;50.346;3.526;2022-07-29T12:43:56;4.50;;;0.73;;
52368;SDS011;38298;50.346;3.526;2022-07-29T12:46:22;6.65;;;1.05;;
52368;SDS011;38298;50.346;3.526;2022-07-29T12:48:52;0.50;;;0.50;;
52368;SDS011;38298;50.346;3.526;2022-07-29T12:51:29;2.35;;;0.80;;
52368;SDS011;38298;50.346;3.526;2022-07-29T12:54:29;4.05;;;0.88;;
52368;SDS011;38298;50.346;3.526;2022-07-29T12:56:58;2.90;;;0.60;;
52368;SDS011;38298;50.346;3.526;2022-07-29T12:59:25;5.22;;;1.20;;
52368;SDS011;38298;50.346;3.526;2022-07-29T13:01:51;2.92;;;0.82;;
52368;SDS011;38298;50.346;3.526;2022-07-29T13:04:28;2.03;;;0.70;;
52368;SDS011;38298;50.346;3.526;2022-07-29T13:07:02;1.85;;;0.47;;
52368;SDS011;38298;50.346;3.526;2022-07-29T13:09:40;2.28;;;0.60;;
52368;SDS011;38298;50.346;3.526;2022-07-29T13:12:10;2.58;;;0.60;;
52368;SDS011;38298;50.346;3.526;2022-07-29T13:17:10;3.15;;;0.52;;
52368;SDS011;38298;50.346;3.526;2022-07-29T13:19:47;0.98;;;0.68;;
52368;SDS011;38298;50.346;3.526;2022-07-29T13:22:17;2.10;;;0.57;;
52368;SDS011;38298;50.346;3.526;2022-07-29T13:27:14;2.83;;;0.50;;
52368;SDS011;38298;50.346;3.526;2022-07-29T13:29:40;1.65;;;0.82;;
52368;SDS011;38298;50.346;3.526;2022-07-29T13:32:06;6.90;;;0.80;;
52368;SDS011;38298;50.346;3.526;2022-07-29T13:34:32;3.63;;;0.57;;
52368;SDS011;38298;50.346;3.526;2022-07-29T13:36:59;4.07;;;0.70;;
52368;SDS011;38298;50.346;3.526;2022-07-29T13:39:25;1.98;;;0.90;;
52368;SDS011;38298;50.346;3.526;2022-07-29T13:41:51;2.05;;;0.70;;
52368;SDS011;38298;50.346;3.526;2022-07-29T13:44:17;2.17;;;0.60;;
52368;SDS011;38298;50.346;3.526;2022-07-29T13:46:43;10.00;;;0.85;;
52368;SDS011;38298;50.346;3.526;2022-07-29T13:49:09;4.65;;;0.82;;
52368;SDS011;38298;50.346;3.526;2022-07-29T13:51:36;6.93;;;0.95;;
52368;SDS011;38298;50.346;3.526;2022-07-29T13:54:02;2.28;;;0.65;;
52368;SDS011;38298;50.346;3.526;2022-07-29T13:56:28;0.93;;;0.50;;
52368;SDS011;38298;50.346;3.526;2022-07-29T13:58:55;4.78;;;0.50;;
52368;SDS011;38298;50.346;3.526;2022-07-29T14:01:22;2.72;;;0.75;;
52368;SDS011;38298;50.346;3.526;2022-07-29T14:03:48;4.68;;;0.60;;
52368;SDS011;38298;50.346;3.526;2022-07-29T14:06:14;6.40;;;0.70;;
52368;SDS011;38298;50.346;3.526;2022-07-29T14:08:40;0.95;;;0.60;;
52368;SDS011;38298;50.346;3.526;2022-07-29T14:11:06;3.95;;;0.73;;
52368;SDS011;38298;50.346;3.526;2022-07-29T14:13:33;1.45;;;0.50;;
52368;SDS011;38298;50.346;3.526;2022-07-29T14:15:59;1.42;;;0.68;;
52368;SDS011;38298;50.346;3.526;2022-07-29T14:18:25;2.05;;;0.70;;
52368;SDS011;38298;50.346;3.526;2022-07-29T14:20:51;1.73;;;0.80;;
52368;SDS011;38298;50.346;3.526;2022-07-29T14:23:17;8.15;;;1.13;;
52368;SDS011;38298;50.346;3.526;2022-07-29T14:25:43;1.17;;;0.70;;
52368;SDS011;38298;50.346;3.526;2022-07-29T14:28:09;2.67;;;0.80;;
52368;SDS011;38298;50.346;3.526;2022-07-29T14:30:35;4.22;;;0.60;;
52368;SDS011;38298;50.346;3.526;2022-07-29T14:33:02;2.85;;;0.90;;
52368;SDS011;38298;50.346;3.526;2022-07-29T14:35:28;3.80;;;0.80;;
52368;SDS011;38298;50.346;3.526;2022-07-29T14:37:54;1.45;;;0.68;;
52368;SDS011;38298;50.346;3.526;2022-07-29T14:40:20;1.55;;;0.70;;
52368;SDS011;38298;50.346;3.526;2022-07-29T14:42:46;0.77;;;0.55;;
52368;SDS011;38298;50.346;3.526;2022-07-29T14:45:12;1.38;;;0.60;;
52368;SDS011;38298;50.346;3.526;2022-07-29T14:47:39;2.45;;;0.73;;
52368;SDS011;38298;50.346;3.526;2022-07-29T14:50:05;1.15;;;0.60;;
52368;SDS011;38298;50.346;3.526;2022-07-29T14:52:31;1.17;;;0.60;;
52368;SDS011;38298;50.346;3.526;2022-07-29T14:54:58;1.88;;;0.80;;
52368;SDS011;38298;50.346;3.526;2022-07-29T14:57:24;1.52;;;0.60;;
52368;SDS011;38298;50.346;3.526;2022-07-29T14:59:50;2.70;;;0.93;;
52368;SDS011;38298;50.346;3.526;2022-07-29T15:02:16;2.33;;;0.68;;
52368;SDS011;38298;50.346;3.526;2022-07-29T15:04:42;3.58;;;0.80;;
52368;SDS011;38298;50.346;3.526;2022-07-29T15:07:10;3.17;;;1.00;;
52368;SDS011;38298;50.346;3.526;2022-07-29T15:09:37;4.05;;;1.00;;
52368;SDS011;38298;50.346;3.526;2022-07-29T15:12:03;1.02;;;0.60;;
52368;SDS011;38298;50.346;3.526;2022-07-29T15:14:29;2.10;;;0.80;;
52368;SDS011;38298;50.346;3.526;2022-07-29T15:16:56;0.63;;;0.55;;
52368;SDS011;38298;50.346;3.526;2022-07-29T15:19:22;1.30;;;0.90;;
52368;SDS011;38298;50.346;3.526;2022-07-29T15:21:49;1.00;;;0.73;;
52368;SDS011;38298;50.346;3.526;2022-07-29T15:24:18;3.63;;;0.80;;
52368;SDS011;38298;50.346;3.526;2022-07-29T15:26:44;1.13;;;0.50;;
52368;SDS011;38298;50.346;3.526;2022-07-29T15:29:11;2.20;;;0.70;;
52368;SDS011;38298;50.346;3.526;2022-07-29T15:31:37;1.25;;;0.60;;
52368;SDS011;38298;50.346;3.526;2022-07-29T15:34:03;2.17;;;0.40;;
52368;SDS011;38298;50.346;3.526;2022-07-29T15:36:30;2.22;;;0.50;;
52368;SDS011;38298;50.346;3.526;2022-07-29T15:38:56;1.00;;;0.43;;
52368;SDS011;38298;50.346;3.526;2022-07-29T15:41:22;1.15;;;0.45;;
52368;SDS011;38298;50.346;3.526;2022-07-29T15:43:48;1.90;;;0.40;;
52368;SDS011;38298;50.346;3.526;2022-07-29T15:46:16;1.85;;;0.30;;